sensor_id;sensor_type;location;lat;lon;timestamp;P1;durP1;ratioP1;P2;durP2;ratioP2
7179;SDS011;3631;42.152;24.756;2023-07-31T00:01:56;1.92;;;1.83;;
7179;SDS011;3631;42.152;24.756;2023-07-31T00:04:48;2.17;;;1.80;;
7179;SDS011;3631;42.152;24.756;2023-07-31T00:07:34;2.35;;;1.92;;
7179;SDS011;3631;42.152;24.756;2023-07-31T00:10:33;1.83;;;1.73;;
7179;SDS011;3631;42.152;24.756;2023-07-31T00:13:23;2.65;;;1.63;;
7179;SDS011;3631;42.152;24.756;2023-07-31T00:16:20;2.53;;;1.92;;
7179;SDS011;3631;42.152;24.756;2023-07-31T00:19:06;2.38;;;2.28;;
7179;SDS011;3631;42.152;24.756;2023-07-31T00:22:03;2.05;;;1.90;;
7179;SDS011;3631;42.152;24.756;2023-07-31T00:24:47;1.92;;;1.83;;
7179;SDS011;3631;42.152;24.756;2023-07-31T00:27:26;2.05;;;1.95;;
7179;SDS011;3631;42.152;24.756;2023-07-31T00:30:29;2.00;;;1.90;;
7179;SDS011;3631;42.152;24.756;2023-07-31T00:33:18;1.98;;;1.80;;
7179;SDS011;3631;42.152;24.756;2023-07-31T00:36:07;2.03;;;1.83;;
7179;SDS011;3631;42.152;24.756;2023-07-31T00:38:50;4.75;;;2.00;;
7179;SDS011;3631;42.152;24.756;2023-07-31T00:41:46;4.85;;;2.10;;
7179;SDS011;3631;42.152;24.756;2023-07-31T00:44:33;1.98;;;1.88;;
7179;SDS011;3631;42.152;24.756;2023-07-31T00:47:37;2.28;;;1.70;;
7179;SDS011;3631;42.152;24.756;2023-07-31T00:50:21;2.00;;;1.90;;
7179;SDS011;3631;42.152;24.756;2023-07-31T00:53:14;1.80;;;1.70;;
7179;SDS011;3631;42.152;24.756;2023-07-31T00:56:06;4.35;;;1.80;;
7179;SDS011;3631;42.152;24.756;2023-07-31T00:58:51;1.67;;;1.58;;
7179;SDS011;3631;42.152;24.756;2023-07-31T01:01:42;1.90;;;1.80;;
7179;SDS011;3631;42.152;24.756;2023-07-31T01:04:41;2.63;;;1.85;;
7179;SDS011;3631;42.152;24.756;2023-07-31T01:07:38;1.92;;;1.83;;
7179;SDS011;3631;42.152;24.756;2023-07-31T01:10:30;1.73;;;1.63;;
7179;SDS011;3631;42.152;24.756;2023-07-31T01:13:30;2.20;;;2.10;;
7179;SDS011;3631;42.152;24.756;2023-07-31T01:16:25;3.05;;;2.08;;
7179;SDS011;3631;42.152;24.756;2023-07-31T01:19:16;2.45;;;2.00;;
7179;SDS011;3631;42.152;24.756;2023-07-31T01:25:32;9.50;;;3.22;;
7179;SDS011;3631;42.152;24.756;2023-07-31T01:28:36;7.22;;;4.60;;
7179;SDS011;3631;42.152;24.756;2023-07-31T01:31:26;4.65;;;2.83;;
7179;SDS011;3631;42.152;24.756;2023-07-31T01:34:18;3.78;;;3.40;;
7179;SDS011;3631;42.152;24.756;2023-07-31T01:37:03;2.65;;;2.45;;
7179;SDS011;3631;42.152;24.756;2023-07-31T01:39:40;4.72;;;2.58;;
7179;SDS011;3631;42.152;24.756;2023-07-31T01:45:35;3.38;;;3.08;;
7179;SDS011;3631;42.152;24.756;2023-07-31T01:48:32;5.45;;;2.92;;
7179;SDS011;3631;42.152;24.756;2023-07-31T01:51:30;3.03;;;2.83;;
7179;SDS011;3631;42.152;24.756;2023-07-31T01:54:24;3.20;;;3.00;;
7179;SDS011;3631;42.152;24.756;2023-07-31T01:57:17;6.63;;;3.45;;
7179;SDS011;3631;42.152;24.756;2023-07-31T02:00:18;4.53;;;4.00;;
7179;SDS011;3631;42.152;24.756;2023-07-31T02:03:11;7.82;;;5.63;;
7179;SDS011;3631;42.152;24.756;2023-07-31T02:06:05;14.38;;;7.50;;
7179;SDS011;3631;42.152;24.756;2023-07-31T02:08:54;12.02;;;7.93;;
7179;SDS011;3631;42.152;24.756;2023-07-31T02:11:40;14.57;;;9.60;;
7179;SDS011;3631;42.152;24.756;2023-07-31T02:14:34;14.48;;;10.20;;
7179;SDS011;3631;42.152;24.756;2023-07-31T02:17:44;19.40;;;14.73;;
7179;SDS011;3631;42.152;24.756;2023-07-31T02:20:27;21.67;;;14.55;;
7179;SDS011;3631;42.152;24.756;2023-07-31T02:23:25;15.30;;;13.27;;
7179;SDS011;3631;42.152;24.756;2023-07-31T02:26:11;12.85;;;10.38;;
7179;SDS011;3631;42.152;24.756;2023-07-31T02:28:56;9.35;;;8.32;;
7179;SDS011;3631;42.152;24.756;2023-07-31T02:31:44;8.00;;;6.95;;
7179;SDS011;3631;42.152;24.756;2023-07-31T02:34:39;9.75;;;6.20;;
7179;SDS011;3631;42.152;24.756;2023-07-31T02:37:25;5.75;;;5.25;;
7179;SDS011;3631;42.152;24.756;2023-07-31T02:40:18;5.25;;;4.78;;
7179;SDS011;3631;42.152;24.756;2023-07-31T02:43:15;5.13;;;4.15;;
7179;SDS011;3631;42.152;24.756;2023-07-31T02:46:13;5.22;;;4.10;;
7179;SDS011;3631;42.152;24.756;2023-07-31T02:49:08;4.35;;;4.00;;
7179;SDS011;3631;42.152;24.756;2023-07-31T02:54:51;4.22;;;4.03;;
7179;SDS011;3631;42.152;24.756;2023-07-31T02:57:38;6.40;;;4.18;;
7179;SDS011;3631;42.152;24.756;2023-07-31T03:00:29;4.38;;;4.00;;
7179;SDS011;3631;42.152;24.756;2023-07-31T03:03:19;4.55;;;4.15;;
7179;SDS011;3631;42.152;24.756;2023-07-31T03:06:15;6.68;;;4.75;;
7179;SDS011;3631;42.152;24.756;2023-07-31T03:08:46;5.47;;;5.18;;
7179;SDS011;3631;42.152;24.756;2023-07-31T03:11:16;5.90;;;5.40;;
7179;SDS011;3631;42.152;24.756;2023-07-31T03:13:46;7.00;;;5.30;;
7179;SDS011;3631;42.152;24.756;2023-07-31T03:16:14;5.18;;;4.88;;
7179;SDS011;3631;42.152;24.756;2023-07-31T03:18:46;7.05;;;5.40;;
7179;SDS011;3631;42.152;24.756;2023-07-31T03:21:23;12.50;;;5.82;;
7179;SDS011;3631;42.152;24.756;2023-07-31T03:24:13;13.10;;;6.90;;
7179;SDS011;3631;42.152;24.756;2023-07-31T03:26:47;12.50;;;6.65;;
7179;SDS011;3631;42.152;24.756;2023-07-31T03:29:27;7.40;;;6.70;;
7179;SDS011;3631;42.152;24.756;2023-07-31T03:32:13;11.45;;;7.13;;
7179;SDS011;3631;42.152;24.756;2023-07-31T03:34:56;10.82;;;8.23;;
7179;SDS011;3631;42.152;24.756;2023-07-31T03:37:33;8.98;;;8.18;;
7179;SDS011;3631;42.152;24.756;2023-07-31T03:40:06;10.20;;;8.65;;
7179;SDS011;3631;42.152;24.756;2023-07-31T03:42:43;11.85;;;8.15;;
7179;SDS011;3631;42.152;24.756;2023-07-31T03:45:37;9.68;;;8.77;;
7179;SDS011;3631;42.152;24.756;2023-07-31T03:48:20;10.45;;;8.25;;
7179;SDS011;3631;42.152;24.756;2023-07-31T03:50:53;11.57;;;9.10;;
7179;SDS011;3631;42.152;24.756;2023-07-31T03:53:25;15.88;;;8.65;;
7179;SDS011;3631;42.152;24.756;2023-07-31T03:56:12;13.13;;;9.75;;
7179;SDS011;3631;42.152;24.756;2023-07-31T03:58:59;9.40;;;8.50;;
7179;SDS011;3631;42.152;24.756;2023-07-31T04:01:54;14.60;;;8.90;;
7179;SDS011;3631;42.152;24.756;2023-07-31T04:04:39;10.50;;;8.15;;
7179;SDS011;3631;42.152;24.756;2023-07-31T04:07:26;12.20;;;8.18;;
7179;SDS011;3631;42.152;24.756;2023-07-31T04:10:08;11.35;;;7.93;;
7179;SDS011;3631;42.152;24.756;2023-07-31T04:13:12;10.18;;;8.85;;
7179;SDS011;3631;42.152;24.756;2023-07-31T04:16:06;8.27;;;7.35;;
7179;SDS011;3631;42.152;24.756;2023-07-31T04:18:56;9.80;;;8.65;;
7179;SDS011;3631;42.152;24.756;2023-07-31T04:21:46;18.60;;;10.52;;
7179;SDS011;3631;42.152;24.756;2023-07-31T04:24:16;10.32;;;9.30;;
7179;SDS011;3631;42.152;24.756;2023-07-31T04:26:56;10.40;;;7.60;;
7179;SDS011;3631;42.152;24.756;2023-07-31T04:29:37;8.68;;;7.97;;
7179;SDS011;3631;42.152;24.756;2023-07-31T04:32:15;9.63;;;8.63;;
7179;SDS011;3631;42.152;24.756;2023-07-31T04:34:56;8.18;;;7.53;;
7179;SDS011;3631;42.152;24.756;2023-07-31T04:37:38;11.45;;;8.30;;
7179;SDS011;3631;42.152;24.756;2023-07-31T04:40:14;7.78;;;7.18;;
7179;SDS011;3631;42.152;24.756;2023-07-31T04:42:47;13.95;;;11.45;;
7179;SDS011;3631;42.152;24.756;2023-07-31T04:45:25;10.80;;;9.70;;
7179;SDS011;3631;42.152;24.756;2023-07-31T04:48:06;8.48;;;7.70;;
7179;SDS011;3631;42.152;24.756;2023-07-31T04:50:40;7.80;;;7.20;;
7179;SDS011;3631;42.152;24.756;2023-07-31T04:53:23;8.63;;;7.75;;
7179;SDS011;3631;42.152;24.756;2023-07-31T04:56:01;9.15;;;8.35;;
7179;SDS011;3631;42.152;24.756;2023-07-31T04:58:37;8.52;;;7.82;;
7179;SDS011;3631;42.152;24.756;2023-07-31T05:01:17;10.88;;;8.77;;
7179;SDS011;3631;42.152;24.756;2023-07-31T05:04:01;7.80;;;7.10;;
7179;SDS011;3631;42.152;24.756;2023-07-31T05:06:44;8.75;;;8.10;;
7179;SDS011;3631;42.152;24.756;2023-07-31T05:09:28;9.25;;;7.25;;
7179;SDS011;3631;42.152;24.756;2023-07-31T05:12:23;8.25;;;7.63;;
7179;SDS011;3631;42.152;24.756;2023-07-31T05:15:04;8.95;;;7.10;;
7179;SDS011;3631;42.152;24.756;2023-07-31T05:17:52;8.57;;;7.38;;
7179;SDS011;3631;42.152;24.756;2023-07-31T05:20:49;7.75;;;6.93;;
7179;SDS011;3631;42.152;24.756;2023-07-31T05:23:46;11.25;;;8.75;;
7179;SDS011;3631;42.152;24.756;2023-07-31T05:26:39;11.98;;;9.07;;
7179;SDS011;3631;42.152;24.756;2023-07-31T05:29:33;7.20;;;6.63;;
7179;SDS011;3631;42.152;24.756;2023-07-31T05:32:30;14.32;;;12.77;;
7179;SDS011;3631;42.152;24.756;2023-07-31T05:35:22;12.98;;;7.43;;
7179;SDS011;3631;42.152;24.756;2023-07-31T05:38:11;8.27;;;7.47;;
7179;SDS011;3631;42.152;24.756;2023-07-31T05:41:00;8.20;;;7.10;;
7179;SDS011;3631;42.152;24.756;2023-07-31T05:43:48;9.07;;;8.18;;
7179;SDS011;3631;42.152;24.756;2023-07-31T05:46:37;6.28;;;5.70;;
7179;SDS011;3631;42.152;24.756;2023-07-31T05:49:31;7.63;;;6.35;;
7179;SDS011;3631;42.152;24.756;2023-07-31T05:52:26;7.28;;;6.65;;
7179;SDS011;3631;42.152;24.756;2023-07-31T05:55:22;6.97;;;6.20;;
7179;SDS011;3631;42.152;24.756;2023-07-31T05:58:11;6.20;;;5.70;;
7179;SDS011;3631;42.152;24.756;2023-07-31T06:01:10;7.45;;;6.45;;
7179;SDS011;3631;42.152;24.756;2023-07-31T06:04:05;8.85;;;8.02;;
7179;SDS011;3631;42.152;24.756;2023-07-31T06:06:57;8.65;;;7.15;;
7179;SDS011;3631;42.152;24.756;2023-07-31T06:10:11;7.45;;;6.95;;
7179;SDS011;3631;42.152;24.756;2023-07-31T06:12:56;9.10;;;7.57;;
7179;SDS011;3631;42.152;24.756;2023-07-31T06:15:40;8.32;;;7.55;;
7179;SDS011;3631;42.152;24.756;2023-07-31T06:18:34;7.85;;;7.30;;
7179;SDS011;3631;42.152;24.756;2023-07-31T06:21:23;8.07;;;7.40;;
7179;SDS011;3631;42.152;24.756;2023-07-31T06:24:17;8.98;;;8.20;;
7179;SDS011;3631;42.152;24.756;2023-07-31T06:27:14;8.45;;;7.85;;
7179;SDS011;3631;42.152;24.756;2023-07-31T06:30:12;7.40;;;6.90;;
7179;SDS011;3631;42.152;24.756;2023-07-31T06:33:06;7.53;;;6.90;;
7179;SDS011;3631;42.152;24.756;2023-07-31T06:35:53;9.93;;;8.10;;
7179;SDS011;3631;42.152;24.756;2023-07-31T06:38:36;8.77;;;8.07;;
7179;SDS011;3631;42.152;24.756;2023-07-31T06:41:26;8.82;;;7.97;;
7179;SDS011;3631;42.152;24.756;2023-07-31T06:44:25;8.82;;;8.02;;
7179;SDS011;3631;42.152;24.756;2023-07-31T06:47:25;8.45;;;7.82;;
7179;SDS011;3631;42.152;24.756;2023-07-31T06:50:12;10.45;;;9.52;;
7179;SDS011;3631;42.152;24.756;2023-07-31T06:53:05;9.68;;;8.82;;
7179;SDS011;3631;42.152;24.756;2023-07-31T06:55:58;9.85;;;8.95;;
7179;SDS011;3631;42.152;24.756;2023-07-31T06:58:44;10.00;;;9.15;;
7179;SDS011;3631;42.152;24.756;2023-07-31T07:04:37;11.45;;;10.27;;
7179;SDS011;3631;42.152;24.756;2023-07-31T07:07:27;10.70;;;9.80;;
7179;SDS011;3631;42.152;24.756;2023-07-31T07:10:12;9.85;;;9.25;;
7179;SDS011;3631;42.152;24.756;2023-07-31T07:12:50;10.73;;;9.93;;
7179;SDS011;3631;42.152;24.756;2023-07-31T07:15:30;10.52;;;9.82;;
7179;SDS011;3631;42.152;24.756;2023-07-31T07:18:22;11.30;;;10.43;;
7179;SDS011;3631;42.152;24.756;2023-07-31T07:21:20;10.55;;;9.85;;
7179;SDS011;3631;42.152;24.756;2023-07-31T07:24:16;10.95;;;10.02;;
7179;SDS011;3631;42.152;24.756;2023-07-31T07:27:03;11.55;;;10.57;;
7179;SDS011;3631;42.152;24.756;2023-07-31T07:30:01;11.63;;;10.82;;
7179;SDS011;3631;42.152;24.756;2023-07-31T07:32:58;11.65;;;10.70;;
7179;SDS011;3631;42.152;24.756;2023-07-31T07:36:01;12.40;;;11.40;;
7179;SDS011;3631;42.152;24.756;2023-07-31T07:42:11;12.45;;;11.00;;
7179;SDS011;3631;42.152;24.756;2023-07-31T07:44:55;12.85;;;10.30;;
7179;SDS011;3631;42.152;24.756;2023-07-31T07:47:46;12.38;;;11.23;;
7179;SDS011;3631;42.152;24.756;2023-07-31T07:50:44;10.98;;;10.10;;
7179;SDS011;3631;42.152;24.756;2023-07-31T07:53:40;11.57;;;10.45;;
7179;SDS011;3631;42.152;24.756;2023-07-31T07:56:47;11.48;;;10.77;;
7179;SDS011;3631;42.152;24.756;2023-07-31T07:59:39;11.45;;;10.65;;
7179;SDS011;3631;42.152;24.756;2023-07-31T08:02:37;11.45;;;10.45;;
7179;SDS011;3631;42.152;24.756;2023-07-31T08:05:46;13.55;;;12.45;;
7179;SDS011;3631;42.152;24.756;2023-07-31T08:11:48;13.23;;;12.00;;
7179;SDS011;3631;42.152;24.756;2023-07-31T08:14:40;10.50;;;9.73;;
7179;SDS011;3631;42.152;24.756;2023-07-31T08:17:50;10.85;;;9.95;;
7179;SDS011;3631;42.152;24.756;2023-07-31T08:20:41;11.10;;;10.15;;
7179;SDS011;3631;42.152;24.756;2023-07-31T08:23:28;10.70;;;9.80;;
7179;SDS011;3631;42.152;24.756;2023-07-31T08:29:32;9.32;;;8.70;;
7179;SDS011;3631;42.152;24.756;2023-07-31T08:32:22;9.50;;;8.90;;
7179;SDS011;3631;42.152;24.756;2023-07-31T08:35:26;9.45;;;8.77;;
7179;SDS011;3631;42.152;24.756;2023-07-31T08:38:23;9.65;;;8.63;;
7179;SDS011;3631;42.152;24.756;2023-07-31T08:41:11;11.10;;;10.18;;
7179;SDS011;3631;42.152;24.756;2023-07-31T08:44:05;13.18;;;12.07;;
7179;SDS011;3631;42.152;24.756;2023-07-31T08:47:03;13.18;;;11.93;;
7179;SDS011;3631;42.152;24.756;2023-07-31T08:49:46;13.05;;;12.05;;
7179;SDS011;3631;42.152;24.756;2023-07-31T08:52:40;11.82;;;10.85;;
7179;SDS011;3631;42.152;24.756;2023-07-31T08:55:26;12.52;;;11.52;;
7179;SDS011;3631;42.152;24.756;2023-07-31T08:58:11;11.40;;;10.55;;
7179;SDS011;3631;42.152;24.756;2023-07-31T09:01:11;11.60;;;10.50;;
7179;SDS011;3631;42.152;24.756;2023-07-31T09:03:58;11.65;;;10.75;;
7179;SDS011;3631;42.152;24.756;2023-07-31T09:06:55;10.73;;;9.93;;
7179;SDS011;3631;42.152;24.756;2023-07-31T09:09:44;10.85;;;10.05;;
7179;SDS011;3631;42.152;24.756;2023-07-31T09:12:35;12.23;;;11.32;;
7179;SDS011;3631;42.152;24.756;2023-07-31T09:15:29;11.77;;;10.88;;
7179;SDS011;3631;42.152;24.756;2023-07-31T09:18:25;12.43;;;11.40;;
7179;SDS011;3631;42.152;24.756;2023-07-31T09:21:19;12.30;;;11.35;;
7179;SDS011;3631;42.152;24.756;2023-07-31T09:24:10;12.05;;;11.15;;
7179;SDS011;3631;42.152;24.756;2023-07-31T09:27:09;12.90;;;11.90;;
7179;SDS011;3631;42.152;24.756;2023-07-31T09:30:05;12.02;;;11.02;;
7179;SDS011;3631;42.152;24.756;2023-07-31T09:33:05;12.38;;;11.25;;
7179;SDS011;3631;42.152;24.756;2023-07-31T09:36:07;13.40;;;12.30;;
7179;SDS011;3631;42.152;24.756;2023-07-31T09:39:07;13.00;;;12.10;;
7179;SDS011;3631;42.152;24.756;2023-07-31T09:41:59;12.05;;;11.07;;
7179;SDS011;3631;42.152;24.756;2023-07-31T09:44:48;11.95;;;10.95;;
7179;SDS011;3631;42.152;24.756;2023-07-31T09:47:50;11.48;;;10.65;;
7179;SDS011;3631;42.152;24.756;2023-07-31T09:50:40;11.38;;;10.52;;
7179;SDS011;3631;42.152;24.756;2023-07-31T09:54:00;11.25;;;10.45;;
7179;SDS011;3631;42.152;24.756;2023-07-31T09:56:58;9.73;;;9.13;;
7179;SDS011;3631;42.152;24.756;2023-07-31T09:59:49;10.65;;;9.82;;
7179;SDS011;3631;42.152;24.756;2023-07-31T10:02:49;10.48;;;9.77;;
7179;SDS011;3631;42.152;24.756;2023-07-31T10:05:40;11.00;;;10.30;;
7179;SDS011;3631;42.152;24.756;2023-07-31T10:08:36;12.25;;;10.98;;
7179;SDS011;3631;42.152;24.756;2023-07-31T10:11:42;12.15;;;11.02;;
7179;SDS011;3631;42.152;24.756;2023-07-31T10:14:40;11.82;;;10.70;;
7179;SDS011;3631;42.152;24.756;2023-07-31T10:17:24;11.80;;;10.63;;
7179;SDS011;3631;42.152;24.756;2023-07-31T10:20:22;11.48;;;10.55;;
7179;SDS011;3631;42.152;24.756;2023-07-31T10:23:21;10.52;;;9.77;;
7179;SDS011;3631;42.152;24.756;2023-07-31T10:26:19;14.82;;;9.35;;
7179;SDS011;3631;42.152;24.756;2023-07-31T10:29:11;11.27;;;10.38;;
7179;SDS011;3631;42.152;24.756;2023-07-31T10:32:15;11.95;;;11.05;;
7179;SDS011;3631;42.152;24.756;2023-07-31T10:35:09;12.98;;;11.88;;
7179;SDS011;3631;42.152;24.756;2023-07-31T10:37:51;20.02;;;10.57;;
7179;SDS011;3631;42.152;24.756;2023-07-31T10:40:33;10.48;;;9.68;;
7179;SDS011;3631;42.152;24.756;2023-07-31T10:43:21;8.85;;;8.18;;
7179;SDS011;3631;42.152;24.756;2023-07-31T10:46:14;10.35;;;9.65;;
7179;SDS011;3631;42.152;24.756;2023-07-31T10:49:04;9.45;;;8.80;;
7179;SDS011;3631;42.152;24.756;2023-07-31T10:52:04;10.48;;;9.77;;
7179;SDS011;3631;42.152;24.756;2023-07-31T10:55:16;10.82;;;9.90;;
7179;SDS011;3631;42.152;24.756;2023-07-31T10:58:38;9.93;;;9.32;;
7179;SDS011;3631;42.152;24.756;2023-07-31T11:01:35;9.27;;;8.68;;
7179;SDS011;3631;42.152;24.756;2023-07-31T11:04:39;9.07;;;8.48;;
7179;SDS011;3631;42.152;24.756;2023-07-31T11:07:58;9.05;;;8.13;;
7179;SDS011;3631;42.152;24.756;2023-07-31T11:11:09;10.00;;;9.30;;
7179;SDS011;3631;42.152;24.756;2023-07-31T11:14:19;12.35;;;11.45;;
7179;SDS011;3631;42.152;24.756;2023-07-31T11:17:13;12.02;;;10.98;;
7179;SDS011;3631;42.152;24.756;2023-07-31T11:20:03;10.07;;;9.38;;
7179;SDS011;3631;42.152;24.756;2023-07-31T11:22:57;8.90;;;8.00;;
7179;SDS011;3631;42.152;24.756;2023-07-31T11:26:08;9.63;;;8.80;;
7179;SDS011;3631;42.152;24.756;2023-07-31T11:32:21;11.00;;;8.20;;
7179;SDS011;3631;42.152;24.756;2023-07-31T11:35:11;7.95;;;7.55;;
7179;SDS011;3631;42.152;24.756;2023-07-31T11:38:26;9.02;;;8.18;;
7179;SDS011;3631;42.152;24.756;2023-07-31T11:41:13;9.15;;;8.45;;
7179;SDS011;3631;42.152;24.756;2023-07-31T11:44:11;8.63;;;7.40;;
7179;SDS011;3631;42.152;24.756;2023-07-31T11:47:16;8.55;;;7.95;;
7179;SDS011;3631;42.152;24.756;2023-07-31T11:50:07;8.13;;;7.53;;
7179;SDS011;3631;42.152;24.756;2023-07-31T11:52:59;8.35;;;7.88;;
7179;SDS011;3631;42.152;24.756;2023-07-31T11:55:44;7.97;;;7.38;;
7179;SDS011;3631;42.152;24.756;2023-07-31T11:58:17;7.75;;;7.05;;
7179;SDS011;3631;42.152;24.756;2023-07-31T12:01:08;8.40;;;7.80;;
7179;SDS011;3631;42.152;24.756;2023-07-31T12:07:09;9.35;;;8.55;;
7179;SDS011;3631;42.152;24.756;2023-07-31T12:10:05;9.98;;;9.27;;
7179;SDS011;3631;42.152;24.756;2023-07-31T12:13:02;9.32;;;8.70;;
7179;SDS011;3631;42.152;24.756;2023-07-31T12:15:53;9.25;;;8.55;;
7179;SDS011;3631;42.152;24.756;2023-07-31T12:18:37;9.50;;;8.90;;
7179;SDS011;3631;42.152;24.756;2023-07-31T12:21:37;9.93;;;9.23;;
7179;SDS011;3631;42.152;24.756;2023-07-31T12:24:30;10.55;;;9.82;;
7179;SDS011;3631;42.152;24.756;2023-07-31T12:27:32;10.00;;;9.30;;
7179;SDS011;3631;42.152;24.756;2023-07-31T12:30:36;10.07;;;9.38;;
7179;SDS011;3631;42.152;24.756;2023-07-31T12:33:29;9.18;;;8.38;;
7179;SDS011;3631;42.152;24.756;2023-07-31T12:36:28;8.23;;;7.53;;
7179;SDS011;3631;42.152;24.756;2023-07-31T12:39:18;8.90;;;8.30;;
7179;SDS011;3631;42.152;24.756;2023-07-31T12:42:09;7.43;;;6.68;;
7179;SDS011;3631;42.152;24.756;2023-07-31T12:45:06;7.18;;;6.70;;
7179;SDS011;3631;42.152;24.756;2023-07-31T12:48:03;5.45;;;5.10;;
7179;SDS011;3631;42.152;24.756;2023-07-31T12:51:07;6.00;;;5.70;;
7179;SDS011;3631;42.152;24.756;2023-07-31T12:54:04;8.15;;;7.55;;
7179;SDS011;3631;42.152;24.756;2023-07-31T12:56:36;8.63;;;8.10;;
7179;SDS011;3631;42.152;24.756;2023-07-31T12:59:13;7.30;;;6.90;;
7179;SDS011;3631;42.152;24.756;2023-07-31T13:02:08;7.10;;;6.70;;
7179;SDS011;3631;42.152;24.756;2023-07-31T13:04:55;9.02;;;8.13;;
7179;SDS011;3631;42.152;24.756;2023-07-31T13:07:48;7.10;;;6.68;;
7179;SDS011;3631;42.152;24.756;2023-07-31T13:10:58;6.75;;;6.18;;
7179;SDS011;3631;42.152;24.756;2023-07-31T13:13:52;6.00;;;5.70;;
7179;SDS011;3631;42.152;24.756;2023-07-31T13:16:35;6.85;;;6.30;;
7179;SDS011;3631;42.152;24.756;2023-07-31T13:19:21;8.18;;;7.35;;
7179;SDS011;3631;42.152;24.756;2023-07-31T13:22:16;9.52;;;8.75;;
7179;SDS011;3631;42.152;24.756;2023-07-31T13:25:12;9.32;;;8.60;;
7179;SDS011;3631;42.152;24.756;2023-07-31T13:31:32;9.45;;;8.82;;
7179;SDS011;3631;42.152;24.756;2023-07-31T13:34:19;8.38;;;7.78;;
7179;SDS011;3631;42.152;24.756;2023-07-31T13:37:11;8.18;;;7.68;;
7179;SDS011;3631;42.152;24.756;2023-07-31T13:39:59;7.70;;;7.30;;
7179;SDS011;3631;42.152;24.756;2023-07-31T13:42:50;8.13;;;7.53;;
7179;SDS011;3631;42.152;24.756;2023-07-31T13:45:36;8.95;;;8.35;;
7179;SDS011;3631;42.152;24.756;2023-07-31T13:48:27;8.75;;;8.18;;
7179;SDS011;3631;42.152;24.756;2023-07-31T13:51:26;7.90;;;7.47;;
7179;SDS011;3631;42.152;24.756;2023-07-31T13:54:18;8.45;;;7.90;;
7179;SDS011;3631;42.152;24.756;2023-07-31T13:57:23;8.57;;;7.97;;
7179;SDS011;3631;42.152;24.756;2023-07-31T14:00:08;8.13;;;7.63;;
7179;SDS011;3631;42.152;24.756;2023-07-31T14:03:02;8.57;;;7.97;;
7179;SDS011;3631;42.152;24.756;2023-07-31T14:05:42;8.60;;;7.95;;
7179;SDS011;3631;42.152;24.756;2023-07-31T14:08:34;8.20;;;7.50;;
7179;SDS011;3631;42.152;24.756;2023-07-31T14:11:26;8.13;;;7.57;;
7179;SDS011;3631;42.152;24.756;2023-07-31T14:14:16;8.02;;;7.35;;
7179;SDS011;3631;42.152;24.756;2023-07-31T14:17:13;8.60;;;7.97;;
7179;SDS011;3631;42.152;24.756;2023-07-31T14:20:21;7.50;;;7.05;;
7179;SDS011;3631;42.152;24.756;2023-07-31T14:23:19;7.95;;;7.45;;
7179;SDS011;3631;42.152;24.756;2023-07-31T14:26:14;8.05;;;7.63;;
7179;SDS011;3631;42.152;24.756;2023-07-31T14:29:06;8.25;;;7.78;;
7179;SDS011;3631;42.152;24.756;2023-07-31T14:32:04;8.05;;;7.65;;
7179;SDS011;3631;42.152;24.756;2023-07-31T14:34:57;8.32;;;7.72;;
7179;SDS011;3631;42.152;24.756;2023-07-31T14:40:44;7.75;;;7.25;;
7179;SDS011;3631;42.152;24.756;2023-07-31T14:43:38;8.15;;;7.57;;
7179;SDS011;3631;42.152;24.756;2023-07-31T14:46:32;7.35;;;6.85;;
7179;SDS011;3631;42.152;24.756;2023-07-31T14:49:22;7.85;;;7.07;;
7179;SDS011;3631;42.152;24.756;2023-07-31T14:52:16;8.18;;;7.68;;
7179;SDS011;3631;42.152;24.756;2023-07-31T14:55:15;9.00;;;8.07;;
7179;SDS011;3631;42.152;24.756;2023-07-31T14:58:04;9.55;;;8.07;;
7179;SDS011;3631;42.152;24.756;2023-07-31T15:00:57;9.35;;;8.60;;
7179;SDS011;3631;42.152;24.756;2023-07-31T15:03:38;8.82;;;8.32;;
7179;SDS011;3631;42.152;24.756;2023-07-31T15:06:26;10.55;;;8.90;;
7179;SDS011;3631;42.152;24.756;2023-07-31T15:09:21;8.82;;;8.23;;
7179;SDS011;3631;42.152;24.756;2023-07-31T15:15:09;9.50;;;8.50;;
7179;SDS011;3631;42.152;24.756;2023-07-31T15:17:53;9.02;;;8.43;;
7179;SDS011;3631;42.152;24.756;2023-07-31T15:20:44;8.73;;;8.15;;
7179;SDS011;3631;42.152;24.756;2023-07-31T15:23:54;9.27;;;8.68;;
7179;SDS011;3631;42.152;24.756;2023-07-31T15:26:47;9.45;;;8.73;;
7179;SDS011;3631;42.152;24.756;2023-07-31T15:29:48;8.55;;;8.00;;
7179;SDS011;3631;42.152;24.756;2023-07-31T15:32:42;9.32;;;8.63;;
7179;SDS011;3631;42.152;24.756;2023-07-31T15:35:31;10.63;;;8.68;;
7179;SDS011;3631;42.152;24.756;2023-07-31T15:38:16;8.63;;;8.02;;
7179;SDS011;3631;42.152;24.756;2023-07-31T15:41:08;8.25;;;7.82;;
7179;SDS011;3631;42.152;24.756;2023-07-31T15:44:13;8.93;;;8.32;;
7179;SDS011;3631;42.152;24.756;2023-07-31T15:47:17;8.90;;;8.13;;
7179;SDS011;3631;42.152;24.756;2023-07-31T15:50:17;9.50;;;8.85;;
7179;SDS011;3631;42.152;24.756;2023-07-31T15:53:09;8.93;;;8.32;;
7179;SDS011;3631;42.152;24.756;2023-07-31T15:56:10;8.93;;;8.32;;
7179;SDS011;3631;42.152;24.756;2023-07-31T15:58:59;8.50;;;7.82;;
7179;SDS011;3631;42.152;24.756;2023-07-31T16:01:53;9.23;;;8.60;;
7179;SDS011;3631;42.152;24.756;2023-07-31T16:04:46;9.57;;;8.75;;
7179;SDS011;3631;42.152;24.756;2023-07-31T16:07:14;8.80;;;8.15;;
7179;SDS011;3631;42.152;24.756;2023-07-31T16:09:51;7.70;;;7.30;;
7179;SDS011;3631;42.152;24.756;2023-07-31T16:12:35;8.02;;;7.60;;
7179;SDS011;3631;42.152;24.756;2023-07-31T16:15:11;8.50;;;8.00;;
7179;SDS011;3631;42.152;24.756;2023-07-31T16:18:01;9.15;;;8.38;;
7179;SDS011;3631;42.152;24.756;2023-07-31T16:20:44;8.90;;;8.07;;
7179;SDS011;3631;42.152;24.756;2023-07-31T16:23:21;8.57;;;7.95;;
7179;SDS011;3631;42.152;24.756;2023-07-31T16:25:55;9.07;;;8.38;;
7179;SDS011;3631;42.152;24.756;2023-07-31T16:28:43;9.27;;;8.57;;
7179;SDS011;3631;42.152;24.756;2023-07-31T16:31:29;9.80;;;8.88;;
7179;SDS011;3631;42.152;24.756;2023-07-31T16:34:22;9.63;;;8.65;;
7179;SDS011;3631;42.152;24.756;2023-07-31T16:37:28;8.98;;;8.27;;
7179;SDS011;3631;42.152;24.756;2023-07-31T16:40:05;9.00;;;8.43;;
7179;SDS011;3631;42.152;24.756;2023-07-31T16:42:40;9.00;;;8.27;;
7179;SDS011;3631;42.152;24.756;2023-07-31T16:45:10;9.60;;;8.90;;
7179;SDS011;3631;42.152;24.756;2023-07-31T16:47:48;13.10;;;8.80;;
7179;SDS011;3631;42.152;24.756;2023-07-31T16:50:29;10.00;;;9.07;;
7179;SDS011;3631;42.152;24.756;2023-07-31T16:53:17;8.80;;;8.20;;
7179;SDS011;3631;42.152;24.756;2023-07-31T16:56:10;14.45;;;12.05;;
7179;SDS011;3631;42.152;24.756;2023-07-31T16:59:03;11.13;;;10.10;;
7179;SDS011;3631;42.152;24.756;2023-07-31T17:01:53;11.10;;;10.23;;
7179;SDS011;3631;42.152;24.756;2023-07-31T17:04:41;10.82;;;9.90;;
7179;SDS011;3631;42.152;24.756;2023-07-31T17:07:18;10.05;;;9.35;;
7179;SDS011;3631;42.152;24.756;2023-07-31T17:10:05;10.07;;;9.38;;
7179;SDS011;3631;42.152;24.756;2023-07-31T17:12:55;11.15;;;10.15;;
7179;SDS011;3631;42.152;24.756;2023-07-31T17:15:46;10.38;;;9.48;;
7179;SDS011;3631;42.152;24.756;2023-07-31T17:18:32;10.23;;;9.52;;
7179;SDS011;3631;42.152;24.756;2023-07-31T17:21:06;10.20;;;9.50;;
7179;SDS011;3631;42.152;24.756;2023-07-31T17:24:12;9.60;;;8.80;;
7179;SDS011;3631;42.152;24.756;2023-07-31T17:27:13;10.27;;;9.57;;
7179;SDS011;3631;42.152;24.756;2023-07-31T17:30:00;10.85;;;9.73;;
7179;SDS011;3631;42.152;24.756;2023-07-31T17:32:42;11.05;;;9.68;;
7179;SDS011;3631;42.152;24.756;2023-07-31T17:35:36;9.60;;;8.75;;
7179;SDS011;3631;42.152;24.756;2023-07-31T17:38:34;7.32;;;6.93;;
7179;SDS011;3631;42.152;24.756;2023-07-31T17:41:28;6.40;;;5.95;;
7179;SDS011;3631;42.152;24.756;2023-07-31T17:44:20;6.70;;;6.15;;
7179;SDS011;3631;42.152;24.756;2023-07-31T17:46:59;6.68;;;5.90;;
7179;SDS011;3631;42.152;24.756;2023-07-31T17:49:48;5.15;;;4.43;;
7179;SDS011;3631;42.152;24.756;2023-07-31T17:52:40;4.22;;;3.85;;
7179;SDS011;3631;42.152;24.756;2023-07-31T17:55:21;6.22;;;3.95;;